Wetterdaten: aktuell Montag, 25.10.2021 23:45
Datum Zeit Temp. A. Feuchte A. Luftdruck Regen Wind Richtung Richtung Sonnenschein UV Windben
25.10.2021 23:45 2,8 C 91 % 1022,6 hPa 0,0 l/m 0,0 km/h O-SO 113 0 min 0,0 UV-I 0,0 km/h
25.10.2021 22:45 3,6 C 91 % 1022,5 hPa 0,0 l/m 0,0 km/h O-SO 113 0 min 0,0 UV-I 0,0 km/h
25.10.2021 21:45 4,8 C 91 % 1022,0 hPa 0,0 l/m 0,0 km/h O-SO 113 0 min 0,0 UV-I 0,0 km/h
25.10.2021 20:45 5,4 C 90 % 1022,0 hPa 0,0 l/m 0,0 km/h O-SO 113 0 min 0,0 UV-I 0,0 km/h
25.10.2021 19:45 6,4 C 89 % 1022,0 hPa 0,0 l/m 0,0 km/h O-SO 113 0 min 0,0 UV-I 0,0 km/h
25.10.2021 18:45 7,4 C 86 % 1022,0 hPa 0,0 l/m 0,0 km/h O-SO 113 5 min 0,0 UV-I 1,6 km/h
25.10.2021 17:45 8,3 C 84 % 1021,5 hPa 0,0 l/m 0,0 km/h O-SO 109 45 min 0,0 UV-I 0,0 km/h
25.10.2021 16:45 8,8 C 83 % 1021,9 hPa 0,0 l/m 3,4 km/h O-SO 113 60 min 0,0 UV-I 6,4 km/h
25.10.2021 15:45 8,7 C 83 % 1022,0 hPa 0,0 l/m 1,9 km/h O-SO 111 60 min 0,8 UV-I 4,8 km/h
25.10.2021 14:45 5,7 C 92 % 1022,5 hPa 0,0 l/m 2,4 km/h O 91 10 min 1,1 UV-I 9,7 km/h
25.10.2021 13:45 4,0 C 93 % 1023,0 hPa 0,0 l/m 2,1 km/h O-SO 111 0 min 0,9 UV-I 4,8 km/h
25.10.2021 12:45 3,2 C 92 % 1023,5 hPa 0,0 l/m 1,6 km/h O-SO 112 0 min 0,9 UV-I 3,2 km/h
25.10.2021 11:45 2,7 C 93 % 1023,6 hPa 0,0 l/m 3,0 km/h O-SO 105 0 min 0,6 UV-I 8,0 km/h
25.10.2021 10:45 2,1 C 92 % 1024,0 hPa 0,0 l/m 0,7 km/h O 94 0 min 0,2 UV-I 3,2 km/h
25.10.2021 09:45 1,1 C 92 % 1024,0 hPa 0,0 l/m 2,2 km/h O-SO 109 0 min 0,0 UV-I 4,8 km/h
25.10.2021 08:45 0,9 C 92 % 1023,4 hPa 0,2 l/m 0,8 km/h O-SO 109 0 min 0,0 UV-I 1,6 km/h
25.10.2021 07:45 0,6 C 92 % 1023,5 hPa 0,0 l/m 0,0 km/h O-SO 112 0 min 0,0 UV-I 1,6 km/h
25.10.2021 06:45 0,3 C 92 % 1023,6 hPa 0,0 l/m 0,0 km/h N 0 0 min 0,0 UV-I 0,0 km/h
25.10.2021 05:45 -0,1 C 92 % 1023,8 hPa 0,0 l/m 0,0 km/h N 0 0 min 0,0 UV-I 0,0 km/h
25.10.2021 04:45 -0,4 C 92 % 1023,8 hPa 0,0 l/m 0,0 km/h N 0 0 min 0,0 UV-I 0,0 km/h
25.10.2021 03:45 -0,5 C 91 % 1023,9 hPa 0,0 l/m 0,0 km/h N 0 0 min 0,0 UV-I 0,0 km/h
25.10.2021 02:45 0,2 C 91 % 1023,9 hPa 0,0 l/m 0,0 km/h N 0 0 min 0,0 UV-I 0,0 km/h
25.10.2021 01:45 0,3 C 91 % 1023,9 hPa 0,0 l/m 0,0 km/h N 0 0 min 0,0 UV-I 0,0 km/h
25.10.2021 00:45 0,9 C 90 % 1024,2 hPa 0,0 l/m 0,0 km/h N 0 0 min 0,0 UV-I 0,0 km/h
25.10.2021 00:00 1,5 C 90 % 1024,3 hPa 0,0 l/m 0,0 km/h N 0 0 min 0,0 UV-I 0,0 km/h
_ Min-Zeit 04:30 16:20 17:55 - 23:45 - - - - 23:45
Minimum _ -0,6 C 81 % 1021,5 hPa - 0,0 km/h - - - - 0,0 km/h
_ Max-Zeit 16:15 14:20 00:10 07:50 10:55 - - 17:50 14:50 14:05
Maximum _ 9,3 C 93 % 1024,3 hPa 0,2 l/m 4,6 km/h
O-SO
- - 5 min 1,2 UV-I 11,3 km/h
O
Durchschnitt _ 3,2 C 90 % 1023,1 hPa #0,2 l/m 0,9 km/h O-SO - #3:00 h 0,8 UV-I 2,5 km/h